Pella, Idaho
Current Conditions -  °F | °C
As of 3:53 PM on Saturday 22 Nov 2014 (Local Time) from KBYI Reporting Station
Few Clouds Few Clouds  
Wind Chill: 31°   Ceiling: Unl
Heat Index: 40°   Visibility: 10mi
Dew Point: 33°   Wind: 16mph
Humidity: 77%   Direction: 260°W
Pressure: 29.76"   Gusts: NA
Location:  42.5011°N, 113.814°W
Report Text: KBYI 222253Z AUTO 26014KT 10SM FEW024 FEW030 FEW100 04/01 A2976 RMK AO2 RAE34 SLP073 P0000 T00440006
Loading
Personal Weather Stations






























Interactive Weather Map New forecast layout! Learn more

10-Day Weather Forecast

Advertisements
Track Severe Weather on mobile